Time;durP1;ratioP1;P1;durP2;ratioP2;P2;SDS_P1;SDS_P2;PMS_P1;PMS_P2;Temp;Humidity;BMP_temperature;BMP_pressure;BME280_temperature;BME280_humidity;BME280_pressure;Samples;Min_cycle;Max_cycle;Signal;HPM_P1;HPM_P2
2022/08/28 00:00:36;;;;;;;19.55;13.93;;;;;;;21.18;100.00;100129.16;6304847;22;20030;-82
2022/08/28 00:07:05;;;;;;;20.50;15.05;;;;;;;20.93;100.00;100108.72;6305231;22;20030;-83
2022/08/28 00:13:25;;;;;;;24.50;16.95;;;;;;;20.84;100.00;100090.47;6304644;22;20324;-83
2022/08/28 00:16:34;;;;;;;23.50;15.93;;;;;;;20.84;100.00;100095.88;6272095;22;20004;-85
2022/08/28 00:19:49;;;;;;;21.67;15.43;;;;;;;20.74;100.00;100101.03;6272701;23;20008;-83
2022/08/28 00:31:01;;;;;;;19.40;14.55;;;;;;;20.98;100.00;100106.09;6236341;22;20016;-82
2022/08/28 00:37:41;;;;;;;26.63;15.82;;;;;;;20.96;100.00;100105.53;6212713;23;20081;-82
2022/08/28 00:40:24;;;;;;;19.40;14.60;;;;;;;21.07;100.00;100104.69;6210596;23;20013;-82
2022/08/28 00:43:08;;;;;;;20.27;14.65;;;;;;;21.04;100.00;100107.03;6190909;23;20017;-83
2022/08/28 00:45:43;;;;;;;22.52;14.30;;;;;;;20.95;100.00;100122.75;6208388;23;20017;-84
2022/08/28 00:48:13;;;;;;;24.80;14.75;;;;;;;20.95;100.00;100119.22;6203465;23;20009;-85
2022/08/28 00:53:37;;;;;;;23.42;14.02;;;;;;;20.93;100.00;100115.97;6193405;23;20020;-81
2022/08/28 00:56:25;;;;;;;16.90;12.13;;;;;;;20.79;100.00;100118.13;6205425;23;20020;-83
2022/08/28 00:59:16;;;;;;;16.88;10.90;;;;;;;20.76;100.00;100129.38;6207374;23;20021;-82
2022/08/28 01:02:18;;;;;;;15.77;11.38;;;;;;;20.70;100.00;100135.72;6205984;23;20021;-83
2022/08/28 01:05:12;;;;;;;19.10;11.35;;;;;;;20.62;100.00;100133.38;6207214;23;20005;-82
2022/08/28 01:07:43;;;;;;;17.45;11.40;;;;;;;20.59;100.00;100144.63;6207636;23;20013;-82
2022/08/28 01:10:31;;;;;;;15.18;11.25;;;;;;;20.60;100.00;100147.09;6203383;23;20009;-83
2022/08/28 01:13:18;;;;;;;13.93;11.20;;;;;;;20.64;100.00;100152.81;6200177;23;20061;-83
2022/08/28 01:16:09;;;;;;;17.67;11.55;;;;;;;20.62;100.00;100154.91;6205385;23;20009;-82
2022/08/28 01:18:56;;;;;;;16.88;11.30;;;;;;;20.57;100.00;100160.19;6221796;22;20039;-83
2022/08/28 01:22:21;;;;;;;15.40;11.27;;;;;;;20.63;100.00;100156.56;6265050;23;20031;-82
2022/08/28 01:24:56;;;;;;;16.15;11.18;;;;;;;20.71;100.00;100153.50;6264539;22;20024;-82
2022/08/28 01:27:25;;;;;;;17.45;11.02;;;;;;;20.73;100.00;100156.78;6265962;23;20008;-81
2022/08/28 01:30:21;;;;;;;14.80;11.65;;;;;;;20.63;100.00;100145.78;6269117;23;20080;-84
2022/08/28 01:33:11;;;;;;;17.17;11.77;;;;;;;20.58;100.00;100153.78;6266000;22;20039;-81
2022/08/28 01:35:46;;;;;;;16.45;13.27;;;;;;;20.54;100.00;100148.03;6266188;23;20012;-83
2022/08/28 01:38:42;;;;;;;21.63;15.18;;;;;;;20.56;100.00;100151.31;6266839;22;20012;-86
2022/08/28 01:41:12;;;;;;;24.35;15.63;;;;;;;20.59;100.00;100145.44;6265080;23;20012;-81
2022/08/28 01:43:43;;;;;;;27.15;18.00;;;;;;;20.58;100.00;100137.63;6269156;22;20008;-85
2022/08/28 02:22:19;;;;;;;26.30;17.45;;;;;;;20.44;100.00;100147.81;6287672;22;20069;-92
2022/08/28 02:24:49;;;;;;;;;;;;;;;20.39;100.00;100138.78;6223727;22;20009;-91
2022/08/28 02:27:29;;;;;;;26.50;18.80;;;;;;;20.41;100.00;100142.06;6211332;23;19915;-92
2022/08/28 02:29:56;;;;;;;31.00;20.48;;;;;;;20.41;100.00;100144.78;6180646;23;20006;-91
2022/08/28 02:32:22;;;;;;;29.95;20.25;;;;;;;20.43;100.00;100150.72;6158243;23;20013;-92
2022/08/28 02:34:49;;;;;;;29.15;19.65;;;;;;;20.43;100.00;100142.66;6189179;23;20017;-91
2022/08/28 02:37:19;;;;;;;27.17;19.75;;;;;;;20.35;100.00;100141.13;6185768;23;20017;-93
2022/08/28 02:39:47;;;;;;;24.23;18.75;;;;;;;20.33;100.00;100150.50;6182261;23;20133;-93
2022/08/28 02:42:13;;;;;;;31.27;19.27;;;;;;;20.33;100.00;100153.19;6138215;23;20085;-92
2022/08/28 02:44:42;;;;;;;29.42;20.27;;;;;;;20.26;100.00;100155.13;6161073;23;20085;-92
2022/08/28 02:50:37;;;;;;;29.85;20.05;;;;;;;20.20;100.00;100150.69;6201443;22;20021;-91
2022/08/28 02:53:35;;;;;;;23.83;18.77;;;;;;;20.12;100.00;100139.22;6202950;23;20021;-92
2022/08/28 02:56:12;;;;;;;29.48;19.85;;;;;;;20.10;100.00;100140.50;6166513;23;20417;-93
2022/08/28 02:58:42;;;;;;;28.77;18.13;;;;;;;20.11;100.00;100140.28;6189561;23;20016;-92
2022/08/28 03:01:14;;;;;;;24.45;18.17;;;;;;;20.23;100.00;100147.53;6187585;23;20001;-92
2022/08/28 03:03:47;;;;;;;28.02;18.98;;;;;;;20.17;100.00;100137.72;6198279;23;20013;-90
2022/08/28 03:06:14;;;;;;;30.48;19.35;;;;;;;20.10;100.00;100129.75;6189458;23;20013;-92
2022/08/28 03:08:41;;;;;;;27.38;17.55;;;;;;;20.10;100.00;100119.00;6187235;23;20023;-92
2022/08/28 03:11:07;;;;;;;25.92;18.42;;;;;;;20.03;100.00;100108.34;6163147;23;20107;-92
2022/08/28 03:13:35;;;;;;;29.38;19.23;;;;;;;20.06;100.00;100112.44;6188205;23;20012;-92
2022/08/28 03:16:03;;;;;;;27.55;18.52;;;;;;;20.21;100.00;100103.91;6164416;23;20039;-92
2022/08/28 03:18:32;;;;;;;33.67;19.92;;;;;;;20.26;100.00;100112.06;6164135;23;20009;-91
2022/08/28 03:21:08;;;;;;;29.27;20.92;;;;;;;20.12;100.00;100116.88;6193941;23;20017;-91
2022/08/28 03:23:33;;;;;;;31.83;21.77;;;;;;;20.08;100.00;100116.53;6162339;23;20065;-90
2022/08/28 03:26:09;;;;;;;28.98;20.38;;;;;;;20.04;100.00;100103.78;6162966;23;20013;-91
2022/08/28 03:28:39;;;;;;;32.42;20.80;;;;;;;19.99;100.00;100107.16;6190101;23;20024;-92
2022/08/28 03:31:10;;;;;;;30.95;21.90;;;;;;;19.96;100.00;100096.88;6188837;23;20068;-91
2022/08/28 03:33:40;;;;;;;33.83;21.43;;;;;;;19.96;100.00;100099.56;6192572;23;20009;-91
2022/08/28 03:36:16;;;;;;;31.98;21.92;;;;;;;19.92;100.00;100101.06;6171126;23;20005;-93
2022/08/28 03:39:01;;;;;;;30.15;21.40;;;;;;;19.98;100.00;100107.41;6193602;23;20013;-92
2022/08/28 03:41:30;;;;;;;33.80;22.00;;;;;;;20.00;100.00;100114.19;6166614;23;20016;-92
2022/08/28 03:43:58;;;;;;;33.22;20.95;;;;;;;19.99;100.00;100112.53;6189265;23;20017;-91
2022/08/28 03:46:26;;;;;;;32.22;21.20;;;;;;;19.94;100.00;100114.31;6164794;23;20013;-93
2022/08/28 03:48:52;;;;;;;31.23;19.38;;;;;;;19.83;100.00;100115.09;6193610;23;20016;-94
2022/08/28 03:51:22;;;;;;;26.85;17.10;;;;;;;19.90;100.00;100108.56;6187655;23;20017;-92
2022/08/28 03:53:49;;;;;;;24.02;14.90;;;;;;;19.95;100.00;100110.56;6161136;23;20017;-91
2022/08/28 03:56:20;;;;;;;25.95;15.32;;;;;;;19.88;100.00;100093.72;6166102;23;20005;-91
2022/08/28 03:58:51;;;;;;;21.25;14.55;;;;;;;19.90;100.00;100103.19;6167894;23;20009;-93
2022/08/28 04:01:24;;;;;;;22.52;12.88;;;;;;;19.98;100.00;100105.56;6195173;23;20040;-93
2022/08/28 04:04:05;;;;;;;15.45;10.95;;;;;;;19.95;100.00;100119.44;6198209;23;20390;-92
2022/08/28 04:06:31;;;;;;;16.42;10.25;;;;;;;19.89;100.00;100123.06;6171656;23;20015;-91
2022/08/28 04:09:01;;;;;;;15.98;9.55;;;;;;;19.97;100.00;100124.59;6199634;23;20060;-94
2022/08/28 04:11:59;;;;;;;16.73;7.68;;;;;;;19.96;100.00;100121.09;6186040;23;20029;-94
2022/08/28 04:14:50;;;;;;;11.05;7.80;;;;;;;19.87;100.00;100122.50;6207403;23;20162;-92
2022/08/28 04:17:20;;;;;;;17.10;8.40;;;;;;;19.85;100.00;100118.41;6205211;23;20013;-91
2022/08/28 04:19:49;;;;;;;10.18;8.52;;;;;;;19.87;100.00;100113.59;6208117;23;20001;-92
2022/08/28 04:22:28;;;;;;;12.35;8.57;;;;;;;19.92;100.00;100111.03;6211014;23;20036;-92
2022/08/28 04:24:57;;;;;;;17.77;9.75;;;;;;;19.95;100.00;100113.25;6202128;23;20013;-93
2022/08/28 04:27:23;;;;;;;13.18;9.95;;;;;;;20.00;100.00;100116.88;6197057;23;20012;-94
2022/08/28 04:29:48;;;;;;;13.90;10.65;;;;;;;20.03;100.00;100124.50;6202581;23;20017;-91
2022/08/28 04:32:14;;;;;;;15.75;11.75;;;;;;;20.05;100.00;100125.06;6201596;23;20017;-92
2022/08/28 04:34:40;;;;;;;18.70;13.40;;;;;;;20.10;100.00;100116.31;6198346;23;20013;-93
2022/08/28 04:37:06;;;;;;;21.02;15.38;;;;;;;20.09;100.00;100123.56;6189573;23;20035;-92
2022/08/28 04:39:34;;;;;;;25.52;17.38;;;;;;;20.10;100.00;100130.56;6191370;23;20013;-93
2022/08/28 04:42:00;;;;;;;27.10;16.92;;;;;;;20.20;100.00;100129.16;6194985;23;20005;-92
2022/08/28 04:44:27;;;;;;;29.20;16.80;;;;;;;20.22;100.00;100132.47;6217868;23;20398;-93
2022/08/28 04:46:53;;;;;;;23.45;16.17;;;;;;;20.12;100.00;100139.22;6192615;23;20006;-91
2022/08/28 04:49:18;;;;;;;28.80;16.67;;;;;;;20.06;100.00;100140.16;6198823;23;20023;-92
2022/08/28 04:51:44;;;;;;;25.52;16.10;;;;;;;20.11;100.00;100148.38;6202409;23;20285;-91
2022/08/28 04:54:12;;;;;;;18.10;12.98;;;;;;;20.11;100.00;100159.13;6175719;23;20040;-93
2022/08/28 04:56:43;;;;;;;15.57;12.63;;;;;;;19.96;100.00;100161.44;6148949;23;20017;-91
2022/08/28 04:59:10;;;;;;;16.23;9.32;;;;;;;19.85;100.00;100151.47;6200732;23;20016;-92
2022/08/28 05:01:36;;;;;;;12.50;8.32;;;;;;;19.84;100.00;100157.91;6176466;23;20019;-92
2022/08/28 05:04:02;;;;;;;10.57;7.30;;;;;;;19.89;100.00;100162.59;6164990;23;20071;-91
2022/08/28 05:06:30;;;;;;;9.45;7.20;;;;;;;20.17;100.00;100167.31;6193799;23;20048;-91
2022/08/28 05:09:00;;;;;;;11.18;6.70;;;;;;;20.30;100.00;100172.50;6169485;23;20020;-92
2022/08/28 05:11:28;;;;;;;10.05;7.40;;;;;;;20.38;100.00;100175.63;6230551;23;20004;-91
2022/08/28 05:13:54;;;;;;;11.77;7.68;;;;;;;20.33;100.00;100177.41;6192386;23;20554;-90
2022/08/28 05:16:21;;;;;;;10.27;7.05;;;;;;;20.38;100.00;100185.63;6312391;22;19995;-91
2022/08/28 05:18:58;;;;;;;11.55;7.15;;;;;;;20.36;100.00;100187.69;6340931;22;20009;-92
2022/08/28 05:21:24;;;;;;;12.25;7.18;;;;;;;20.35;100.00;100181.50;6312665;22;20018;-88
2022/08/28 05:23:55;;;;;;;13.70;7.63;;;;;;;20.54;100.00;100179.53;6340750;22;20007;-91
2022/08/28 05:26:53;;;;;;;13.15;8.45;;;;;;;20.64;100.00;100182.44;6319414;22;20007;-89
2022/08/28 05:29:18;;;;;;;13.38;7.78;;;;;;;20.75;100.00;100181.59;6321826;22;20011;-88
2022/08/28 05:31:44;;;;;;;11.23;7.88;;;;;;;21.05;100.00;100186.78;6312782;22;20015;-85
2022/08/28 05:34:10;;;;;;;9.45;8.07;;;;;;;21.38;100.00;100186.13;6341039;22;20013;-88
2022/08/28 05:36:38;;;;;;;11.85;7.45;;;;;;;21.52;100.00;100191.00;6341259;22;20052;-84
2022/08/28 05:39:06;;;;;;;14.10;7.97;;;;;;;21.60;100.00;100195.19;6351345;22;20026;-86
2022/08/28 05:41:33;;;;;;;9.60;6.60;;;;;;;21.83;100.00;100200.47;6340334;22;20016;-85
2022/08/28 05:44:04;;;;;;;11.55;7.03;;;;;;;21.65;100.00;100195.28;6342505;22;20006;-84
2022/08/28 05:46:36;;;;;;;10.90;6.45;;;;;;;21.82;100.00;100200.69;6340716;22;20068;-91
2022/08/28 05:49:02;;;;;;;11.07;6.33;;;;;;;22.34;100.00;100202.13;6316801;22;20064;-92
2022/08/28 05:51:28;;;;;;;10.30;6.78;;;;;;;22.38;100.00;100202.47;6318327;22;20025;-91
2022/08/28 05:53:54;;;;;;;11.88;6.13;;;;;;;22.44;100.00;100212.28;6314994;22;20015;-89
2022/08/28 05:56:28;;;;;;;9.93;5.60;;;;;;;22.73;100.00;100205.75;6340731;22;20010;-86
2022/08/28 05:58:58;;;;;;;11.07;5.47;;;;;;;23.66;100.00;100200.09;6313960;22;20112;-88
2022/08/28 06:01:51;;;;;;;9.73;5.45;;;;;;;23.26;100.00;100196.97;6351619;22;20064;-86
2022/08/28 06:04:52;;;;;;;18.88;6.07;;;;;;;22.96;100.00;100208.22;6340246;22;20011;-90
2022/08/28 06:07:51;;;;;;;14.68;6.28;;;;;;;23.07;100.00;100212.66;6361305;22;20006;-83
2022/08/28 06:10:19;;;;;;;13.13;5.90;;;;;;;24.07;100.00;100211.31;6362415;22;20010;-85
2022/08/28 06:13:14;;;;;;;10.13;6.40;;;;;;;24.11;100.00;100207.84;6363148;22;20037;-85
2022/08/28 06:16:23;;;;;;;15.60;10.15;;;;;;;24.88;100.00;100206.53;6361520;22;20019;-86
2022/08/28 06:18:57;;;;;;;16.55;10.98;;;;;;;24.89;100.00;100214.38;6362670;22;20032;-85
2022/08/28 06:21:57;;;;;;;21.88;11.55;;;;;;;24.43;100.00;100213.25;6312775;22;20022;-85
2022/08/28 06:24:30;;;;;;;23.38;14.23;;;;;;;24.63;100.00;100226.94;6356217;22;20010;-84
2022/08/28 06:26:58;;;;;;;22.55;15.60;;;;;;;24.79;100.00;100225.13;6319342;22;20076;-86
2022/08/28 06:29:34;;;;;;;26.75;18.90;;;;;;;25.15;100.00;100223.47;6301274;22;20007;-86
2022/08/28 06:32:53;;;;;;;26.85;17.25;;;;;;;24.91;100.00;100228.50;6363666;22;20033;-87
2022/08/28 06:35:27;;;;;;;29.33;17.25;;;;;;;24.81;100.00;100228.41;6365487;22;20338;-89
2022/08/28 06:38:12;;;;;;;22.20;16.20;;;;;;;25.38;100.00;100233.06;6343589;22;20011;-85
2022/08/28 06:41:12;;;;;;;24.05;15.85;;;;;;;25.47;100.00;100234.16;6317186;22;20094;-87
2022/08/28 06:47:51;;;;;;;26.63;17.25;;;;;;;25.65;100.00;100244.56;6366449;22;20067;-85
2022/08/28 06:50:24;;;;;;;26.15;17.42;;;;;;;26.17;100.00;100250.66;6356501;22;20043;-88
2022/08/28 06:56:26;;;;;;;22.83;15.88;;;;;;;25.68;100.00;100276.59;6367739;22;19995;-86
2022/08/28 06:59:10;;;;;;;22.23;15.02;;;;;;;25.38;100.00;100276.47;6337958;22;19999;-88
2022/08/28 07:02:20;;;;;;;16.33;11.25;;;;;;;24.93;100.00;100275.13;6304221;22;20056;-87
2022/08/28 07:28:02;;;;;;;29.17;16.60;;;;;;;26.37;100.00;100260.69;6282236;22;20031;-82
2022/08/28 07:30:45;;;;;;;23.80;16.30;;;;;;;26.49;100.00;100266.66;6183768;23;20017;-82
2022/08/28 07:33:14;;;;;;;24.27;17.20;;;;;;;27.30;100.00;100273.88;6183286;23;20012;-83
2022/08/28 07:35:45;;;;;;;26.92;16.45;;;;;;;27.46;100.00;100272.75;6158380;23;20013;-85
2022/08/28 07:38:20;;;;;;;21.25;14.65;;;;;;;27.65;100.00;100284.63;6158344;23;20001;-84
2022/08/28 07:41:03;;;;;;;19.45;13.82;;;;;;;27.30;100.00;100277.41;6195838;22;20012;-82
2022/08/28 07:46:30;;;;;;;16.05;12.80;;;;;;;27.40;100.00;100287.44;6291868;22;20120;-86
2022/08/28 07:49:34;;;;;;;21.92;14.27;;;;;;;28.43;94.91;100290.97;6265787;22;20056;-83
2022/08/28 07:52:16;;;;;;;31.95;15.10;;;;;;;28.77;93.38;100290.94;6252415;23;20020;-84
2022/08/28 07:54:43;;;;;;;22.00;15.65;;;;;;;28.68;93.41;100292.66;6270454;23;20008;-84
2022/08/28 07:57:42;;;;;;;20.60;14.23;;;;;;;28.88;91.57;100287.00;6271777;22;20083;-83
2022/08/28 08:00:13;;;;;;;20.65;13.35;;;;;;;28.91;93.23;100296.53;6260702;23;20016;-84
2022/08/28 08:02:49;;;;;;;24.10;14.73;;;;;;;28.85;91.34;100287.59;6266535;22;20093;-83
2022/08/28 08:05:41;;;;;;;21.02;14.70;;;;;;;29.06;90.40;100299.13;6269327;23;20008;-84
2022/08/28 08:08:20;;;;;;;19.40;13.10;;;;;;;29.42;88.14;100305.00;6251739;22;20042;-85
2022/08/28 08:11:09;;;;;;;21.40;14.05;;;;;;;29.27;87.62;100305.19;6254955;23;20019;-84
2022/08/28 08:13:43;;;;;;;21.90;13.73;;;;;;;29.31;87.22;100308.94;6270633;22;20039;-82
2022/08/28 08:16:17;;;;;;;22.00;14.45;;;;;;;29.33;87.62;100295.84;6267475;23;20019;-85
2022/08/28 08:18:47;;;;;;;14.98;11.13;;;;;;;29.55;84.55;100296.09;6270829;22;20036;-82
2022/08/28 08:21:21;;;;;;;18.33;14.20;;;;;;;29.56;86.17;100292.28;6245284;23;20012;-86
2022/08/28 08:23:50;;;;;;;20.98;14.98;;;;;;;29.67;85.90;100294.56;6275999;22;20080;-85
2022/08/28 08:26:21;;;;;;;22.75;15.27;;;;;;;29.76;84.29;100303.72;6297897;22;20015;-83
2022/08/28 08:28:58;;;;;;;19.65;12.35;;;;;;;30.19;82.93;100303.69;6296274;22;20038;-87
2022/08/28 08:31:39;;;;;;;20.55;15.20;;;;;;;29.66;86.02;100309.31;6300841;22;20040;-86
2022/08/28 08:34:37;;;;;;;21.52;15.20;;;;;;;29.20;87.76;100310.94;6275486;22;20049;-85
2022/08/28 08:37:37;;;;;;;20.77;14.35;;;;;;;28.85;90.36;100308.59;6281021;22;20010;-86
2022/08/28 08:40:53;;;;;;;21.10;14.00;;;;;;;28.52;92.20;100304.78;6302811;22;20012;-86
2022/08/28 08:49:12;;;;;;;20.67;14.88;;;;;;;27.90;97.55;100316.38;6276493;22;20015;-84
2022/08/28 08:52:19;;;;;;;27.30;14.85;;;;;;;27.94;97.03;100309.28;6302754;22;20007;-84
2022/08/28 08:55:25;;;;;;;22.77;14.18;;;;;;;28.71;92.88;100309.28;6278011;22;19995;-84
2022/08/28 08:58:36;;;;;;;23.38;14.55;;;;;;;29.31;89.41;100317.13;6253559;22;20008;-85
2022/08/28 09:01:54;;;;;;;20.05;12.52;;;;;;;29.67;86.63;100315.59;6280981;22;20413;-85
2022/08/28 09:05:25;;;;;;;20.45;13.80;;;;;;;30.64;80.83;100318.56;6305703;22;20030;-85
2022/08/28 09:15:40;;;;;;;22.98;14.23;;;;;;;30.30;83.79;100305.16;6348816;22;20012;-82
2022/08/28 09:18:34;;;;;;;21.48;13.35;;;;;;;30.77;81.85;100317.78;6335646;22;20018;-81
2022/08/28 09:53:32;;;;;;;12.77;9.90;;;;;;;30.45;80.72;100315.06;6255029;22;19920;-82
2022/08/28 09:56:38;;;;;;;16.58;10.65;;;;;;;30.91;77.78;100315.91;6242919;23;20024;-85
2022/08/28 10:10:17;;;;;;;13.98;9.60;;;;;;;32.03;62.36;100318.03;6272580;22;19926;-87
2022/08/28 10:13:19;;;;;;;12.95;8.57;;;;;;;32.32;61.40;100322.34;6267039;23;20033;-86
2022/08/28 10:22:35;;;;;;;13.93;7.88;;;;;;;31.97;62.88;100316.53;6296462;22;20004;-87
2022/08/28 10:25:49;;;;;;;14.68;8.68;;;;;;;32.07;61.15;100307.28;6328688;22;20015;-83
2022/08/28 10:34:25;;;;;;;15.32;8.35;;;;;;;32.07;61.25;100301.81;6299059;22;20019;-86
2022/08/28 10:40:17;;;;;;;13.98;8.00;;;;;;;32.69;58.34;100297.25;6324863;22;20029;-88
2022/08/28 10:43:31;;;;;;;11.55;8.00;;;;;;;33.08;57.49;100305.53;6313221;22;20003;-88
2022/08/28 10:46:43;;;;;;;12.02;8.55;;;;;;;32.46;58.28;100298.38;6241599;22;20022;-87
2022/08/28 10:50:07;;;;;;;12.23;8.10;;;;;;;32.68;58.49;100292.91;6264983;23;20032;-87
2022/08/28 10:53:10;;;;;;;16.63;10.07;;;;;;;33.33;56.18;100300.50;6244051;23;20020;-87
2022/08/28 10:56:55;;;;;;;12.02;7.53;;;;;;;33.28;55.97;100291.25;6316989;22;20076;-88
2022/08/28 11:00:13;;;;;;;15.55;9.50;;;;;;;33.25;56.16;100299.31;6252872;23;20016;-85
2022/08/28 11:02:52;;;;;;;11.63;8.38;;;;;;;33.37;54.87;100302.28;6263460;23;20016;-85
2022/08/28 11:06:02;;;;;;;12.35;8.35;;;;;;;33.01;55.31;100287.91;6233634;23;20020;-84
2022/08/28 11:08:45;;;;;;;13.93;8.65;;;;;;;33.26;55.00;100296.28;6230987;23;20000;-85
2022/08/28 11:11:13;;;;;;;11.55;7.82;;;;;;;33.78;53.04;100290.91;6271428;23;20023;-84
2022/08/28 11:13:51;;;;;;;16.10;8.05;;;;;;;33.30;54.18;100298.38;6214950;23;20004;-83
2022/08/28 11:16:43;;;;;;;12.85;7.43;;;;;;;33.56;53.83;100302.00;6268781;23;20019;-84
2022/08/28 11:19:40;;;;;;;11.85;7.03;;;;;;;33.84;53.64;100289.63;6258356;23;20008;-82
2022/08/28 11:22:38;;;;;;;12.05;8.05;;;;;;;34.07;52.25;100293.84;6330870;22;19991;-84
2022/08/28 11:25:32;;;;;;;14.13;8.18;;;;;;;33.05;53.62;100289.69;6330851;22;20015;-85
2022/08/28 11:28:31;;;;;;;9.75;6.68;;;;;;;33.11;54.60;100282.97;6333536;22;20011;-85
2022/08/28 11:34:04;;;;;;;12.55;6.53;;;;;;;33.04;53.90;100271.63;6328857;22;19999;-85
2022/08/28 11:36:51;;;;;;;14.30;6.75;;;;;;;33.24;53.73;100286.75;6327609;22;20035;-83
2022/08/28 11:39:30;;;;;;;11.57;8.10;;;;;;;33.59;52.24;100287.63;6330396;22;20034;-84
2022/08/28 11:57:26;;;;;;;14.15;6.85;;;;;;;30.82;61.37;100268.47;6337190;22;20080;-83
2022/08/28 12:00:52;;;;;;;12.40;8.02;;;;;;;30.59;62.29;100267.47;6344427;22;20019;-90
2022/08/28 12:03:39;;;;;;;11.45;6.88;;;;;;;30.45;64.00;100260.38;6289328;22;20025;-90
2022/08/28 12:06:06;;;;;;;17.55;8.98;;;;;;;29.85;66.24;100262.13;6316352;22;20021;-92
2022/08/28 12:08:47;;;;;;;9.50;6.25;;;;;;;29.72;66.32;100248.06;6315571;22;20031;-88
2022/08/28 12:11:38;;;;;;;15.85;6.82;;;;;;;29.90;67.04;100246.44;6344174;22;20011;-93
2022/08/28 12:14:28;;;;;;;13.48;9.02;;;;;;;29.73;67.15;100244.19;6322155;22;20019;-92
2022/08/28 12:16:59;;;;;;;9.90;6.97;;;;;;;29.79;68.18;100239.50;6362184;22;20010;-92
2022/08/28 12:19:42;;;;;;;12.50;7.68;;;;;;;29.65;68.08;100225.75;6318735;22;20446;-90
2022/08/28 12:22:17;;;;;;;11.77;8.13;;;;;;;29.51;68.49;100234.97;6340748;22;20116;-92
2022/08/28 12:24:48;;;;;;;17.42;7.35;;;;;;;29.52;68.39;100225.69;6341555;22;20003;-92
2022/08/28 12:27:14;;;;;;;12.98;8.32;;;;;;;29.52;67.60;100228.41;6315358;22;20057;-91
2022/08/28 12:29:50;;;;;;;10.98;6.43;;;;;;;29.26;68.44;100230.66;6315713;22;20026;-87
2022/08/28 12:32:42;;;;;;;11.50;6.10;;;;;;;29.14;69.07;100225.59;6353865;22;20093;-90
2022/08/28 12:35:19;;;;;;;10.60;5.67;;;;;;;29.22;69.10;100224.94;6291619;22;20015;-91
2022/08/28 12:37:49;;;;;;;7.70;5.80;;;;;;;29.30;68.93;100230.91;6345404;22;20298;-90
2022/08/28 12:40:19;;;;;;;12.15;4.15;;;;;;;29.47;69.71;100231.19;6341708;22;20435;-91
2022/08/28 12:43:01;;;;;;;13.30;6.45;;;;;;;29.71;67.30;100240.16;6297416;22;20082;-91
2022/08/28 12:45:36;;;;;;;10.63;6.80;;;;;;;29.60;67.17;100238.66;6347053;22;20015;-89
2022/08/28 12:48:12;;;;;;;8.27;4.40;;;;;;;29.66;67.09;100234.78;6289423;22;20007;-87
2022/08/28 12:50:58;;;;;;;10.80;6.85;;;;;;;29.57;67.44;100228.31;6318264;22;20011;-92
2022/08/28 12:53:24;;;;;;;14.27;5.50;;;;;;;29.48;67.94;100224.63;6345599;22;20014;-90
2022/08/28 12:55:50;;;;;;;14.07;4.57;;;;;;;29.63;68.15;100208.84;6346670;22;20456;-90
2022/08/28 12:58:34;;;;;;;7.07;5.05;;;;;;;29.60;68.44;100200.41;6319184;22;20015;-90
2022/08/28 13:01:31;;;;;;;7.57;4.95;;;;;;;29.52;68.78;100204.66;6292179;22;20132;-90
2022/08/28 13:04:02;;;;;;;9.95;4.95;;;;;;;29.50;68.86;100203.31;6349493;22;20011;-90
2022/08/28 13:06:37;;;;;;;12.82;5.80;;;;;;;29.44;67.81;100202.56;6319054;22;20015;-89
2022/08/28 13:09:14;;;;;;;8.75;4.72;;;;;;;29.40;67.30;100200.72;6319427;22;20011;-91
2022/08/28 13:11:49;;;;;;;9.18;4.68;;;;;;;29.41;67.44;100202.34;6348334;22;20006;-92
2022/08/28 13:14:44;;;;;;;7.50;3.42;;;;;;;29.51;67.64;100188.53;6318127;22;20085;-92
2022/08/28 13:17:13;;;;;;;6.47;4.50;;;;;;;29.47;68.12;100192.97;6314736;22;20089;-89
2022/08/28 13:19:40;;;;;;;6.35;3.28;;;;;;;29.65;67.17;100198.44;6343085;22;20003;-92
2022/08/28 13:22:27;;;;;;;7.32;4.63;;;;;;;29.55;66.78;100203.25;6343671;22;20437;-90
2022/08/28 13:25:00;;;;;;;6.18;4.78;;;;;;;29.36;67.42;100202.41;6346311;22;20410;-92
2022/08/28 13:27:27;;;;;;;8.30;3.88;;;;;;;29.32;67.65;100195.91;6290996;22;20015;-89
2022/08/28 13:30:19;;;;;;;11.77;4.47;;;;;;;29.35;68.38;100187.13;6346876;22;20026;-91
2022/08/28 13:33:16;;;;;;;6.57;3.88;;;;;;;29.39;67.49;100191.72;6291222;22;20323;-89
2022/08/28 13:35:42;;;;;;;9.85;3.65;;;;;;;29.47;66.91;100190.22;6353229;22;20280;-88
2022/08/28 13:38:15;;;;;;;9.35;4.57;;;;;;;29.42;66.47;100187.59;6312394;22;20080;-86
2022/08/28 13:40:47;;;;;;;8.07;3.85;;;;;;;29.34;66.21;100193.69;6340591;22;20014;-91
2022/08/28 13:43:14;;;;;;;;;;;;;;;29.44;66.50;100193.56;6342053;22;20010;-88
2022/08/28 13:45:46;;;;;;;6.30;3.20;;;;;;;29.47;66.28;100190.22;6346093;22;19910;-91
2022/08/28 13:48:16;;;;;;;9.48;3.70;;;;;;;29.49;66.81;100198.97;6312961;22;20056;-90
2022/08/28 13:50:49;;;;;;;8.45;3.65;;;;;;;29.46;66.69;100205.00;6290336;22;20081;-92
2022/08/28 13:53:17;;;;;;;6.88;4.25;;;;;;;29.37;66.57;100193.91;6343930;22;20010;-89
2022/08/28 13:55:43;;;;;;;7.75;4.13;;;;;;;29.36;67.64;100186.03;6343481;22;20002;-88
2022/08/28 13:58:09;;;;;;;8.15;4.22;;;;;;;29.44;66.89;100185.38;6345005;22;20126;-88
2022/08/28 14:00:42;;;;;;;5.60;3.55;;;;;;;29.13;69.48;100188.47;6341789;22;20011;-87
2022/08/28 14:05:53;;;;;;;9.38;3.97;;;;;;;29.28;69.27;100181.22;6347672;22;20052;-85
2022/08/28 14:08:18;;;;;;;9.00;3.47;;;;;;;29.35;70.63;100187.94;6357674;22;20036;-88
2022/08/28 14:10:50;;;;;;;7.43;3.83;;;;;;;28.98;70.83;100196.84;6364643;22;20003;-91
2022/08/28 14:13:16;;;;;;;7.57;3.93;;;;;;;28.85;73.51;100204.94;6365800;22;20011;-87
2022/08/28 14:15:41;;;;;;;5.40;3.60;;;;;;;28.79;73.57;100193.28;6323009;22;20237;-92
2022/08/28 14:18:08;;;;;;;7.55;4.05;;;;;;;28.70;76.06;100197.75;6341702;22;20013;-88
2022/08/28 14:20:37;;;;;;;6.35;3.90;;;;;;;28.75;74.07;100194.94;6313276;22;20011;-90
2022/08/28 14:23:02;;;;;;;9.27;4.15;;;;;;;28.48;75.70;100194.66;6340790;22;20022;-90
2022/08/28 14:25:28;;;;;;;5.90;3.67;;;;;;;28.34;76.21;100185.53;6312379;22;20323;-89
2022/08/28 14:27:54;;;;;;;11.70;4.32;;;;;;;28.26;77.48;100177.97;6340167;22;20014;-89
2022/08/28 14:30:21;;;;;;;7.88;3.75;;;;;;;28.23;77.90;100179.38;6314425;22;20002;-88
2022/08/28 14:32:46;;;;;;;11.02;4.40;;;;;;;28.22;77.80;100175.00;6286859;22;20007;-90
2022/08/28 14:35:12;;;;;;;6.03;3.63;;;;;;;28.36;77.41;100166.97;6313593;22;20019;-92
2022/08/28 14:37:38;;;;;;;5.95;3.85;;;;;;;28.36;76.32;100161.53;6343034;22;20006;-88
2022/08/28 14:40:05;;;;;;;9.55;3.90;;;;;;;28.25;77.15;100174.44;6342742;22;20090;-91
2022/08/28 14:42:30;;;;;;;4.78;3.78;;;;;;;28.22;77.52;100172.28;6343618;22;20007;-88
2022/08/28 14:44:57;;;;;;;7.47;4.00;;;;;;;28.13;74.81;100171.28;6342647;22;20082;-88
2022/08/28 14:47:23;;;;;;;5.70;3.70;;;;;;;28.11;76.20;100185.19;6343067;22;20015;-89
2022/08/28 14:49:50;;;;;;;5.90;4.10;;;;;;;28.09;76.88;100181.94;6361675;22;19987;-89
2022/08/28 14:52:15;;;;;;;6.82;3.67;;;;;;;28.07;78.25;100189.56;6338819;22;20029;-89
2022/08/28 14:54:41;;;;;;;5.82;3.50;;;;;;;28.04;79.26;100190.09;6338417;22;19995;-91
2022/08/28 14:57:06;;;;;;;6.63;3.55;;;;;;;28.04;79.43;100195.56;6358238;22;20027;-89
2022/08/28 14:59:32;;;;;;;9.25;3.47;;;;;;;28.01;81.81;100201.56;6331820;22;19994;-87
2022/08/28 15:02:00;;;;;;;7.30;3.45;;;;;;;27.88;80.37;100199.50;6380008;22;20007;-89
2022/08/28 15:04:33;;;;;;;10.32;3.88;;;;;;;27.90;79.59;100205.50;6373326;22;20112;-89
2022/08/28 15:07:01;;;;;;;11.05;4.18;;;;;;;27.89;81.43;100201.13;6373405;22;20006;-89
2022/08/28 15:09:27;;;;;;;5.88;3.60;;;;;;;27.87;82.34;100206.06;6373044;22;20073;-87
2022/08/28 15:11:53;;;;;;;7.60;3.90;;;;;;;27.85;83.08;100202.78;6373754;22;20006;-90